sensor_id;sensor_type;location;lat;lon;timestamp;pressure;altitude;pressure_sealevel;temperature;humidity
64158;BME280;50449;51.528;5.076;2023-04-03T00:01:28;102854.06;;;12.46;52.60
64158;BME280;50449;51.528;5.076;2023-04-03T00:03:54;102853.22;;;12.45;52.64
64158;BME280;50449;51.528;5.076;2023-04-03T00:06:21;102852.59;;;12.43;52.69
64158;BME280;50449;51.528;5.076;2023-04-03T00:08:47;102851.75;;;12.43;52.76
64158;BME280;50449;51.528;5.076;2023-04-03T00:11:12;102851.94;;;12.41;52.60
64158;BME280;50449;51.528;5.076;2023-04-03T00:13:38;102860.28;;;12.40;52.63
64158;BME280;50449;51.528;5.076;2023-04-03T00:16:05;102858.78;;;12.37;52.54
64158;BME280;50449;51.528;5.076;2023-04-03T00:18:31;102857.13;;;12.36;52.62
64158;BME280;50449;51.528;5.076;2023-04-03T00:20:57;102865.47;;;12.34;52.58
64158;BME280;50449;51.528;5.076;2023-04-03T00:23:22;102868.41;;;12.33;52.68
64158;BME280;50449;51.528;5.076;2023-04-03T00:25:49;102869.41;;;12.32;52.33
64158;BME280;50449;51.528;5.076;2023-04-03T00:28:14;102866.09;;;12.30;52.80
64158;BME280;50449;51.528;5.076;2023-04-03T00:30:40;102870.03;;;12.27;52.82
64158;BME280;50449;51.528;5.076;2023-04-03T00:33:06;102865.66;;;12.26;52.73
64158;BME280;50449;51.528;5.076;2023-04-03T00:35:31;102865.66;;;12.26;52.68
64158;BME280;50449;51.528;5.076;2023-04-03T00:37:57;102865.00;;;12.24;52.63
64158;BME280;50449;51.528;5.076;2023-04-03T00:40:24;102874.19;;;12.23;52.54
64158;BME280;50449;51.528;5.076;2023-04-03T00:42:56;102875.41;;;12.21;52.52
64158;BME280;50449;51.528;5.076;2023-04-03T00:45:37;102871.25;;;12.18;52.48
64158;BME280;50449;51.528;5.076;2023-04-03T00:48:05;102867.91;;;12.16;52.83
64158;BME280;50449;51.528;5.076;2023-04-03T00:50:33;102874.38;;;12.15;52.77
64158;BME280;50449;51.528;5.076;2023-04-03T00:53:01;102879.97;;;12.13;52.69
64158;BME280;50449;51.528;5.076;2023-04-03T00:55:27;102884.75;;;12.11;52.59
64158;BME280;50449;51.528;5.076;2023-04-03T00:57:53;102888.31;;;12.12;52.51
64158;BME280;50449;51.528;5.076;2023-04-03T01:00:21;102889.34;;;12.11;52.53
64158;BME280;50449;51.528;5.076;2023-04-03T01:02:48;102885.97;;;12.09;52.67
64158;BME280;50449;51.528;5.076;2023-04-03T01:05:15;102881.63;;;12.08;52.45
64158;BME280;50449;51.528;5.076;2023-04-03T01:07:41;102885.34;;;12.07;52.59
64158;BME280;50449;51.528;5.076;2023-04-03T01:10:09;102883.88;;;12.04;52.41
64158;BME280;50449;51.528;5.076;2023-04-03T01:12:40;102884.91;;;12.03;52.50
64158;BME280;50449;51.528;5.076;2023-04-03T01:15:09;102884.28;;;12.01;52.64
64158;BME280;50449;51.528;5.076;2023-04-03T01:17:42;102883.44;;;12.01;52.35
64158;BME280;50449;51.528;5.076;2023-04-03T01:25:33;102879.03;;;11.93;52.57
64158;BME280;50449;51.528;5.076;2023-04-03T01:27:59;102880.91;;;11.93;52.63
64158;BME280;50449;51.528;5.076;2023-04-03T01:30:32;102881.09;;;11.91;52.74
64158;BME280;50449;51.528;5.076;2023-04-03T01:32:57;102874.00;;;11.90;52.59
64158;BME280;50449;51.528;5.076;2023-04-03T01:35:23;102866.06;;;11.88;52.62
64158;BME280;50449;51.528;5.076;2023-04-03T01:37:48;102877.97;;;11.87;52.52
64158;BME280;50449;51.528;5.076;2023-04-03T01:40:14;102877.13;;;11.87;52.57
64158;BME280;50449;51.528;5.076;2023-04-03T01:42:39;102876.47;;;11.85;52.56
64158;BME280;50449;51.528;5.076;2023-04-03T01:45:05;102879.34;;;11.83;52.50
64158;BME280;50449;51.528;5.076;2023-04-03T01:47:30;102879.56;;;11.82;52.57
64158;BME280;50449;51.528;5.076;2023-04-03T01:49:56;102876.00;;;11.81;52.45
64158;BME280;50449;51.528;5.076;2023-04-03T01:52:21;102877.03;;;11.80;52.39
64158;BME280;50449;51.528;5.076;2023-04-03T01:54:47;102883.50;;;11.79;52.50
64158;BME280;50449;51.528;5.076;2023-04-03T01:57:12;102882.88;;;11.77;52.34
64158;BME280;50449;51.528;5.076;2023-04-03T01:59:40;102883.88;;;11.76;52.43
64158;BME280;50449;51.528;5.076;2023-04-03T02:02:05;102884.94;;;11.75;52.46
64158;BME280;50449;51.528;5.076;2023-04-03T02:04:31;102887.81;;;11.74;52.44
64158;BME280;50449;51.528;5.076;2023-04-03T02:06:56;102889.88;;;11.72;52.53
64158;BME280;50449;51.528;5.076;2023-04-03T02:09:21;102885.50;;;11.70;52.65
64158;BME280;50449;51.528;5.076;2023-04-03T02:11:47;102888.41;;;11.69;52.53
64158;BME280;50449;51.528;5.076;2023-04-03T02:14:12;102893.00;;;11.68;52.79
64158;BME280;50449;51.528;5.076;2023-04-03T02:16:37;102895.91;;;11.67;52.56
64158;BME280;50449;51.528;5.076;2023-04-03T02:19:03;102886.09;;;11.66;52.54
64158;BME280;50449;51.528;5.076;2023-04-03T02:21:28;102901.69;;;11.64;52.63
64158;BME280;50449;51.528;5.076;2023-04-03T02:23:54;102902.75;;;11.63;52.55
64158;BME280;50449;51.528;5.076;2023-04-03T02:26:19;102893.97;;;11.61;52.45
64158;BME280;50449;51.528;5.076;2023-04-03T02:28:46;102897.72;;;11.60;52.66
64158;BME280;50449;51.528;5.076;2023-04-03T02:31:11;102906.03;;;11.58;52.60
64158;BME280;50449;51.528;5.076;2023-04-03T02:33:37;102905.22;;;11.58;52.55
64158;BME280;50449;51.528;5.076;2023-04-03T02:36:04;102907.25;;;11.56;52.56
64158;BME280;50449;51.528;5.076;2023-04-03T02:38:30;102903.72;;;11.55;52.51
64158;BME280;50449;51.528;5.076;2023-04-03T02:41:10;102908.50;;;11.53;52.54
64158;BME280;50449;51.528;5.076;2023-04-03T02:43:36;102907.84;;;11.51;52.35
64158;BME280;50449;51.528;5.076;2023-04-03T02:46:02;102911.59;;;11.50;52.61
64158;BME280;50449;51.528;5.076;2023-04-03T02:48:27;102916.19;;;11.50;52.62
64158;BME280;50449;51.528;5.076;2023-04-03T02:50:53;102909.06;;;11.48;52.50
64158;BME280;50449;51.528;5.076;2023-04-03T02:53:19;102908.47;;;11.46;52.59
64158;BME280;50449;51.528;5.076;2023-04-03T02:55:45;102915.72;;;11.46;52.43
64158;BME280;50449;51.528;5.076;2023-04-03T02:58:10;102914.25;;;11.43;52.68
64158;BME280;50449;51.528;5.076;2023-04-03T03:00:36;102909.03;;;11.42;52.54
64158;BME280;50449;51.528;5.076;2023-04-03T03:03:02;102904.66;;;11.41;52.54
64158;BME280;50449;51.528;5.076;2023-04-03T03:05:28;102912.97;;;11.39;52.25
64158;BME280;50449;51.528;5.076;2023-04-03T03:07:53;102911.28;;;11.38;52.60
64158;BME280;50449;51.528;5.076;2023-04-03T03:10:19;102907.75;;;11.38;52.57
64158;BME280;50449;51.528;5.076;2023-04-03T03:12:45;102907.09;;;11.36;52.42
64158;BME280;50449;51.528;5.076;2023-04-03T03:15:11;102906.28;;;11.35;52.49
64158;BME280;50449;51.528;5.076;2023-04-03T03:17:36;102909.16;;;11.34;52.48
64158;BME280;50449;51.528;5.076;2023-04-03T03:20:03;102921.03;;;11.33;52.58
64158;BME280;50449;51.528;5.076;2023-04-03T03:22:29;102913.09;;;11.31;52.61
64158;BME280;50449;51.528;5.076;2023-04-03T03:24:54;102917.88;;;11.29;52.53
64158;BME280;50449;51.528;5.076;2023-04-03T03:27:20;102916.19;;;11.28;52.61
64158;BME280;50449;51.528;5.076;2023-04-03T03:29:46;102921.81;;;11.26;52.52
64158;BME280;50449;51.528;5.076;2023-04-03T03:32:11;102919.28;;;11.25;52.46
64158;BME280;50449;51.528;5.076;2023-04-03T03:34:36;102914.06;;;11.23;52.59
64158;BME280;50449;51.528;5.076;2023-04-03T03:37:02;102922.38;;;11.22;52.46
64158;BME280;50449;51.528;5.076;2023-04-03T03:39:28;102918.00;;;11.21;52.53
64158;BME280;50449;51.528;5.076;2023-04-03T03:41:53;102922.56;;;11.20;52.55
64158;BME280;50449;51.528;5.076;2023-04-03T03:44:19;102927.31;;;11.18;52.53
64158;BME280;50449;51.528;5.076;2023-04-03T03:46:45;102941.91;;;11.17;52.52
64158;BME280;50449;51.528;5.076;2023-04-03T03:49:10;102935.84;;;11.15;52.26
64158;BME280;50449;51.528;5.076;2023-04-03T03:51:37;102939.59;;;11.14;52.52
64158;BME280;50449;51.528;5.076;2023-04-03T03:54:03;102935.19;;;11.13;52.37
64158;BME280;50449;51.528;5.076;2023-04-03T03:56:28;102937.25;;;11.11;52.54
64158;BME280;50449;51.528;5.076;2023-04-03T03:58:54;102941.81;;;11.11;52.51
64158;BME280;50449;51.528;5.076;2023-04-03T04:01:22;102941.00;;;11.10;52.49
64158;BME280;50449;51.528;5.076;2023-04-03T04:03:48;102934.94;;;11.08;52.41
64158;BME280;50449;51.528;5.076;2023-04-03T04:06:13;102935.97;;;11.07;52.62
64158;BME280;50449;51.528;5.076;2023-04-03T04:08:39;102929.91;;;11.05;52.67
64158;BME280;50449;51.528;5.076;2023-04-03T04:11:04;102938.19;;;11.03;52.53
64158;BME280;50449;51.528;5.076;2023-04-03T04:13:30;102934.66;;;11.03;52.53
64158;BME280;50449;51.528;5.076;2023-04-03T04:15:55;102934.88;;;11.01;52.47
64158;BME280;50449;51.528;5.076;2023-04-03T04:18:22;102944.00;;;11.00;52.50
64158;BME280;50449;51.528;5.076;2023-04-03T04:20:48;102935.25;;;10.98;52.35
64158;BME280;50449;51.528;5.076;2023-04-03T04:23:13;102940.84;;;10.97;52.35
64158;BME280;50449;51.528;5.076;2023-04-03T04:25:39;102936.47;;;10.96;52.60
64158;BME280;50449;51.528;5.076;2023-04-03T04:28:05;102940.38;;;10.93;52.56
64158;BME280;50449;51.528;5.076;2023-04-03T04:30:30;102934.16;;;10.93;52.45
64158;BME280;50449;51.528;5.076;2023-04-03T04:32:56;102936.00;;;10.92;52.46
64158;BME280;50449;51.528;5.076;2023-04-03T04:35:21;102942.47;;;10.91;52.54
64158;BME280;50449;51.528;5.076;2023-04-03T04:37:46;102942.66;;;10.90;52.49
64158;BME280;50449;51.528;5.076;2023-04-03T04:40:12;102938.28;;;10.89;52.44
64158;BME280;50449;51.528;5.076;2023-04-03T04:42:37;102943.03;;;10.87;52.52
64158;BME280;50449;51.528;5.076;2023-04-03T04:45:03;102947.59;;;10.86;52.50
64158;BME280;50449;51.528;5.076;2023-04-03T04:47:29;102953.19;;;10.85;52.50
64158;BME280;50449;51.528;5.076;2023-04-03T04:49:54;102951.53;;;10.83;52.53
64158;BME280;50449;51.528;5.076;2023-04-03T04:52:20;102941.72;;;10.82;52.41
64158;BME280;50449;51.528;5.076;2023-04-03T04:54:45;102950.88;;;10.81;52.62
64158;BME280;50449;51.528;5.076;2023-04-03T04:57:11;102952.94;;;10.79;52.34
64158;BME280;50449;51.528;5.076;2023-04-03T04:59:36;102957.50;;;10.79;52.58
64158;BME280;50449;51.528;5.076;2023-04-03T05:02:02;102960.38;;;10.77;52.63
64158;BME280;50449;51.528;5.076;2023-04-03T05:04:27;102965.97;;;10.76;52.50
64158;BME280;50449;51.528;5.076;2023-04-03T05:06:53;102958.91;;;10.75;52.42
64158;BME280;50449;51.528;5.076;2023-04-03T05:09:18;102969.88;;;10.73;52.34
64158;BME280;50449;51.528;5.076;2023-04-03T05:11:45;102965.53;;;10.72;52.51
64158;BME280;50449;51.528;5.076;2023-04-03T05:14:11;102965.69;;;10.71;52.40
64158;BME280;50449;51.528;5.076;2023-04-03T05:16:36;102972.97;;;10.70;52.50
64158;BME280;50449;51.528;5.076;2023-04-03T05:19:01;102975.88;;;10.69;52.43
64158;BME280;50449;51.528;5.076;2023-04-03T05:21:27;102975.22;;;10.67;52.59
64158;BME280;50449;51.528;5.076;2023-04-03T05:23:57;102983.50;;;10.65;52.47
64158;BME280;50449;51.528;5.076;2023-04-03T05:26:22;102976.44;;;10.64;52.42
64158;BME280;50449;51.528;5.076;2023-04-03T05:28:48;102979.31;;;10.63;52.47
64158;BME280;50449;51.528;5.076;2023-04-03T05:31:13;102981.19;;;10.62;52.42
64158;BME280;50449;51.528;5.076;2023-04-03T05:33:38;102976.84;;;10.61;52.49
64158;BME280;50449;51.528;5.076;2023-04-03T05:36:04;102976.16;;;10.59;52.44
64158;BME280;50449;51.528;5.076;2023-04-03T05:38:30;102979.06;;;10.57;52.43
64158;BME280;50449;51.528;5.076;2023-04-03T05:40:55;102980.09;;;10.56;52.52
64158;BME280;50449;51.528;5.076;2023-04-03T05:43:21;102980.25;;;10.55;52.48
64158;BME280;50449;51.528;5.076;2023-04-03T05:45:47;102979.44;;;10.54;52.41
64158;BME280;50449;51.528;5.076;2023-04-03T05:48:13;102979.59;;;10.53;52.46
64158;BME280;50449;51.528;5.076;2023-04-03T05:50:38;102985.22;;;10.51;52.45
64158;BME280;50449;51.528;5.076;2023-04-03T05:53:07;102994.34;;;10.50;52.42
64158;BME280;50449;51.528;5.076;2023-04-03T05:55:35;102987.25;;;10.49;52.50
64158;BME280;50449;51.528;5.076;2023-04-03T05:58:01;102992.84;;;10.48;52.36
64158;BME280;50449;51.528;5.076;2023-04-03T06:00:26;102991.19;;;10.47;52.36
64158;BME280;50449;51.528;5.076;2023-04-03T06:02:52;102993.06;;;10.46;52.47
64158;BME280;50449;51.528;5.076;2023-04-03T06:05:18;102997.78;;;10.44;52.52
64158;BME280;50449;51.528;5.076;2023-04-03T06:07:43;103000.50;;;10.44;52.40
64158;BME280;50449;51.528;5.076;2023-04-03T06:10:11;102997.97;;;10.43;52.41
64158;BME280;50449;51.528;5.076;2023-04-03T06:12:37;103002.53;;;10.42;52.27
64158;BME280;50449;51.528;5.076;2023-04-03T06:15:03;103001.88;;;10.40;52.36
64158;BME280;50449;51.528;5.076;2023-04-03T06:17:28;103004.78;;;10.38;52.29
64158;BME280;50449;51.528;5.076;2023-04-03T06:19:54;103002.25;;;10.37;52.30
64158;BME280;50449;51.528;5.076;2023-04-03T06:22:20;103004.31;;;10.35;52.24
64158;BME280;50449;51.528;5.076;2023-04-03T06:24:46;103000.13;;;10.32;52.20
64158;BME280;50449;51.528;5.076;2023-04-03T06:27:12;103010.91;;;10.32;52.30
64158;BME280;50449;51.528;5.076;2023-04-03T06:29:37;103003.84;;;10.31;52.25
64158;BME280;50449;51.528;5.076;2023-04-03T06:32:03;103002.16;;;10.30;52.43
64158;BME280;50449;51.528;5.076;2023-04-03T06:34:28;103015.88;;;10.29;52.48
64158;BME280;50449;51.528;5.076;2023-04-03T06:36:53;103005.06;;;10.29;52.29
64158;BME280;50449;51.528;5.076;2023-04-03T06:39:20;103012.47;;;10.27;52.23
64158;BME280;50449;51.528;5.076;2023-04-03T06:41:47;103024.31;;;10.26;52.23
64158;BME280;50449;51.528;5.076;2023-04-03T06:44:13;103015.56;;;10.24;52.19
64158;BME280;50449;51.528;5.076;2023-04-03T06:46:41;103021.34;;;10.21;52.26
64158;BME280;50449;51.528;5.076;2023-04-03T06:49:07;103018.78;;;10.19;52.13
64158;BME280;50449;51.528;5.076;2023-04-03T06:51:34;103015.25;;;10.18;52.30
64158;BME280;50449;51.528;5.076;2023-04-03T06:54:01;103020.84;;;10.17;52.25
64158;BME280;50449;51.528;5.076;2023-04-03T06:56:27;103022.72;;;10.16;52.33
64158;BME280;50449;51.528;5.076;2023-04-03T06:58:54;103025.41;;;10.16;52.15
64158;BME280;50449;51.528;5.076;2023-04-03T07:01:21;103028.47;;;10.13;52.05
64158;BME280;50449;51.528;5.076;2023-04-03T07:03:47;103032.00;;;10.14;52.00
64158;BME280;50449;51.528;5.076;2023-04-03T07:06:14;103030.53;;;10.11;52.10
64158;BME280;50449;51.528;5.076;2023-04-03T07:08:40;103026.13;;;10.10;52.02
64158;BME280;50449;51.528;5.076;2023-04-03T07:11:06;103033.41;;;10.10;52.08
64158;BME280;50449;51.528;5.076;2023-04-03T07:13:31;103039.00;;;10.08;52.06
64158;BME280;50449;51.528;5.076;2023-04-03T07:15:58;103025.66;;;10.07;51.98
64158;BME280;50449;51.528;5.076;2023-04-03T07:18:23;103041.22;;;10.05;51.77
64158;BME280;50449;51.528;5.076;2023-04-03T07:20:49;103040.53;;;10.03;51.98
64158;BME280;50449;51.528;5.076;2023-04-03T07:23:15;103043.25;;;10.03;51.64
64158;BME280;50449;51.528;5.076;2023-04-03T07:25:50;103042.63;;;10.01;51.83
64158;BME280;50449;51.528;5.076;2023-04-03T07:28:17;103045.31;;;10.01;51.82
64158;BME280;50449;51.528;5.076;2023-04-03T07:30:48;103049.84;;;10.00;51.72
64158;BME280;50449;51.528;5.076;2023-04-03T07:33:15;103040.91;;;10.00;51.95
64158;BME280;50449;51.528;5.076;2023-04-03T07:35:41;103036.34;;;10.00;51.81
64158;BME280;50449;51.528;5.076;2023-04-03T07:38:08;103042.63;;;10.01;51.60
64158;BME280;50449;51.528;5.076;2023-04-03T07:40:33;103044.44;;;10.00;51.61
64158;BME280;50449;51.528;5.076;2023-04-03T07:42:59;103045.31;;;10.01;51.75
64158;BME280;50449;51.528;5.076;2023-04-03T07:45:25;103047.16;;;10.00;51.53
64158;BME280;50449;51.528;5.076;2023-04-03T07:47:50;103053.22;;;10.02;51.68
64158;BME280;50449;51.528;5.076;2023-04-03T07:50:16;103049.50;;;10.03;51.57
64158;BME280;50449;51.528;5.076;2023-04-03T07:52:42;103052.00;;;10.05;51.64
64158;BME280;50449;51.528;5.076;2023-04-03T07:55:08;103051.84;;;10.06;51.38
64158;BME280;50449;51.528;5.076;2023-04-03T07:57:33;103048.94;;;10.08;51.31
64158;BME280;50449;51.528;5.076;2023-04-03T07:59:59;103050.63;;;10.09;51.45
64158;BME280;50449;51.528;5.076;2023-04-03T08:02:24;103053.13;;;10.10;51.30
64158;BME280;50449;51.528;5.076;2023-04-03T08:04:50;103052.97;;;10.12;51.43
64158;BME280;50449;51.528;5.076;2023-04-03T08:07:16;103061.72;;;10.14;51.31
64158;BME280;50449;51.528;5.076;2023-04-03T08:09:41;103056.78;;;10.17;51.38
64158;BME280;50449;51.528;5.076;2023-04-03T08:12:07;103060.34;;;10.18;51.49
64158;BME280;50449;51.528;5.076;2023-04-03T08:14:32;103062.84;;;10.19;51.36
64158;BME280;50449;51.528;5.076;2023-04-03T08:17:00;103066.22;;;10.22;51.47
64158;BME280;50449;51.528;5.076;2023-04-03T08:19:26;103059.59;;;10.24;51.60
64158;BME280;50449;51.528;5.076;2023-04-03T08:21:52;103071.75;;;10.28;51.67
64158;BME280;50449;51.528;5.076;2023-04-03T08:24:20;103075.28;;;10.29;51.49
64158;BME280;50449;51.528;5.076;2023-04-03T08:26:45;103068.69;;;10.31;51.06
64158;BME280;50449;51.528;5.076;2023-04-03T08:29:11;103053.31;;;10.32;51.20
64158;BME280;50449;51.528;5.076;2023-04-03T08:31:36;103065.44;;;10.36;51.48
64158;BME280;50449;51.528;5.076;2023-04-03T08:34:02;103071.28;;;10.39;51.44
64158;BME280;50449;51.528;5.076;2023-04-03T08:36:29;103075.31;;;10.44;51.69
64158;BME280;50449;51.528;5.076;2023-04-03T08:38:56;103083.88;;;10.47;51.65
64158;BME280;50449;51.528;5.076;2023-04-03T08:49:21;103078.66;;;10.60;51.58
64158;BME280;50449;51.528;5.076;2023-04-03T08:51:49;103076.44;;;10.64;51.79
64158;BME280;50449;51.528;5.076;2023-04-03T08:54:49;103080.81;;;10.65;51.46
64158;BME280;50449;51.528;5.076;2023-04-03T08:57:17;103078.41;;;10.70;51.56
64158;BME280;50449;51.528;5.076;2023-04-03T08:59:44;103073.47;;;10.74;51.53
64158;BME280;50449;51.528;5.076;2023-04-03T09:02:25;103076.47;;;10.79;51.45
64158;BME280;50449;51.528;5.076;2023-04-03T09:04:53;103076.06;;;10.82;51.64
64158;BME280;50449;51.528;5.076;2023-04-03T09:07:26;103074.69;;;10.86;51.73
64158;BME280;50449;51.528;5.076;2023-04-03T09:09:57;103076.19;;;10.89;51.78
64158;BME280;50449;51.528;5.076;2023-04-03T09:12:27;103079.16;;;10.94;51.77
64158;BME280;50449;51.528;5.076;2023-04-03T09:20:37;103078.84;;;11.03;51.84
64158;BME280;50449;51.528;5.076;2023-04-03T09:23:24;103083.03;;;11.06;51.75
64158;BME280;50449;51.528;5.076;2023-04-03T09:25:57;103079.31;;;11.07;51.86
64158;BME280;50449;51.528;5.076;2023-04-03T09:28:26;103071.84;;;11.09;51.89
64158;BME280;50449;51.528;5.076;2023-04-03T09:30:53;103069.44;;;11.14;51.89
64158;BME280;50449;51.528;5.076;2023-04-03T09:33:19;103062.59;;;11.18;51.79
64158;BME280;50449;51.528;5.076;2023-04-03T09:35:47;103058.66;;;11.21;51.85
64158;BME280;50449;51.528;5.076;2023-04-03T09:40:43;103058.56;;;11.29;51.89
64158;BME280;50449;51.528;5.076;2023-04-03T09:43:25;103052.94;;;11.31;51.76
64158;BME280;50449;51.528;5.076;2023-04-03T09:45:52;103052.78;;;11.32;51.91
64158;BME280;50449;51.528;5.076;2023-04-03T09:48:28;103054.25;;;11.35;51.68
64158;BME280;50449;51.528;5.076;2023-04-03T09:53:38;103050.97;;;11.39;51.96
64158;BME280;50449;51.528;5.076;2023-04-03T09:56:27;103048.06;;;11.41;51.97
64158;BME280;50449;51.528;5.076;2023-04-03T10:01:33;103055.63;;;11.45;51.37
64158;BME280;50449;51.528;5.076;2023-04-03T10:04:11;103043.56;;;11.48;51.23
64158;BME280;50449;51.528;5.076;2023-04-03T10:06:57;103052.34;;;11.50;51.46
64158;BME280;50449;51.528;5.076;2023-04-03T10:09:28;103047.00;;;11.57;51.62
64158;BME280;50449;51.528;5.076;2023-04-03T10:12:04;103046.63;;;11.60;51.63
64158;BME280;50449;51.528;5.076;2023-04-03T10:14:34;103046.22;;;11.63;51.59
64158;BME280;50449;51.528;5.076;2023-04-03T10:17:09;103050.22;;;11.67;51.45
64158;BME280;50449;51.528;5.076;2023-04-03T10:19:46;103042.69;;;11.62;51.73
64158;BME280;50449;51.528;5.076;2023-04-03T10:22:20;103034.16;;;11.65;51.43
64158;BME280;50449;51.528;5.076;2023-04-03T10:25:07;103033.13;;;11.66;51.50
64158;BME280;50449;51.528;5.076;2023-04-03T10:33:11;103034.03;;;11.74;51.50
64158;BME280;50449;51.528;5.076;2023-04-03T10:36:02;103037.84;;;11.79;51.51
64158;BME280;50449;51.528;5.076;2023-04-03T10:39:18;103027.44;;;11.83;51.26
64158;BME280;50449;51.528;5.076;2023-04-03T10:45:00;103024.19;;;11.87;51.44
64158;BME280;50449;51.528;5.076;2023-04-03T10:52:55;103013.63;;;11.93;50.14
64158;BME280;50449;51.528;5.076;2023-04-03T10:57:53;103022.56;;;11.93;50.05
64158;BME280;50449;51.528;5.076;2023-04-03T11:00:35;103013.84;;;11.98;50.07
64158;BME280;50449;51.528;5.076;2023-04-03T11:03:15;103008.22;;;11.99;49.95
64158;BME280;50449;51.528;5.076;2023-04-03T11:05:49;103008.88;;;12.01;50.17
64158;BME280;50449;51.528;5.076;2023-04-03T11:08:27;103003.28;;;12.03;49.84
64158;BME280;50449;51.528;5.076;2023-04-03T11:10:58;103006.41;;;12.06;49.95
64158;BME280;50449;51.528;5.076;2023-04-03T11:16:23;102995.38;;;12.08;50.38
64158;BME280;50449;51.528;5.076;2023-04-03T11:18:52;102988.75;;;12.10;49.67
64158;BME280;50449;51.528;5.076;2023-04-03T11:21:24;102988.34;;;12.13;50.02
64158;BME280;50449;51.528;5.076;2023-04-03T11:23:56;102986.09;;;12.17;49.75
64158;BME280;50449;51.528;5.076;2023-04-03T11:26:27;102988.56;;;12.19;49.71
64158;BME280;50449;51.528;5.076;2023-04-03T11:29:07;102984.22;;;12.18;49.70
64158;BME280;50449;51.528;5.076;2023-04-03T11:32:01;102965.88;;;12.20;49.34
64158;BME280;50449;51.528;5.076;2023-04-03T11:37:11;102973.78;;;12.21;49.41
64158;BME280;50449;51.528;5.076;2023-04-03T11:39:39;102969.03;;;12.23;49.36
64158;BME280;50449;51.528;5.076;2023-04-03T11:42:47;102962.38;;;12.26;49.41
64158;BME280;50449;51.528;5.076;2023-04-03T11:47:52;102961.97;;;12.29;49.59
64158;BME280;50449;51.528;5.076;2023-04-03T11:53:40;102956.53;;;12.29;49.54
64158;BME280;50449;51.528;5.076;2023-04-03T12:04:11;102944.09;;;12.41;49.45
64158;BME280;50449;51.528;5.076;2023-04-03T12:11:48;102952.91;;;12.50;49.41
64158;BME280;50449;51.528;5.076;2023-04-03T12:14:17;102942.50;;;12.53;49.17
64158;BME280;50449;51.528;5.076;2023-04-03T12:16:45;102944.78;;;12.56;49.21
64158;BME280;50449;51.528;5.076;2023-04-03T12:24:29;102957.56;;;12.63;49.04
64158;BME280;50449;51.528;5.076;2023-04-03T12:27:24;102938.16;;;12.66;49.09
64158;BME280;50449;51.528;5.076;2023-04-03T12:38:33;102914.22;;;12.76;48.99
64158;BME280;50449;51.528;5.076;2023-04-03T12:46:43;102909.41;;;12.85;48.20
64158;BME280;50449;51.528;5.076;2023-04-03T12:49:39;102913.00;;;12.85;48.22
64158;BME280;50449;51.528;5.076;2023-04-03T12:54:45;102903.59;;;12.94;48.12
64158;BME280;50449;51.528;5.076;2023-04-03T12:59:40;102897.59;;;13.06;48.14
64158;BME280;50449;51.528;5.076;2023-04-03T13:02:20;102899.47;;;13.12;48.07
64158;BME280;50449;51.528;5.076;2023-04-03T13:04:46;102889.66;;;13.17;48.03
64158;BME280;50449;51.528;5.076;2023-04-03T13:07:27;102880.06;;;13.21;47.96
64158;BME280;50449;51.528;5.076;2023-04-03T13:10:02;102888.59;;;13.25;47.78
64158;BME280;50449;51.528;5.076;2023-04-03T13:12:28;102878.00;;;13.30;47.89
64158;BME280;50449;51.528;5.076;2023-04-03T13:14:58;102875.72;;;13.34;47.76
64158;BME280;50449;51.528;5.076;2023-04-03T13:17:26;102891.38;;;13.38;47.45
64158;BME280;50449;51.528;5.076;2023-04-03T13:19:53;102879.91;;;13.43;47.08
64158;BME280;50449;51.528;5.076;2023-04-03T13:22:33;102873.63;;;13.49;47.20
64158;BME280;50449;51.528;5.076;2023-04-03T13:25:06;102875.47;;;13.55;47.52
64158;BME280;50449;51.528;5.076;2023-04-03T13:27:32;102870.25;;;13.60;47.13
64158;BME280;50449;51.528;5.076;2023-04-03T13:30:00;102878.84;;;13.64;46.86
64158;BME280;50449;51.528;5.076;2023-04-03T13:32:27;102880.69;;;13.70;47.20
64158;BME280;50449;51.528;5.076;2023-04-03T13:34:54;102872.75;;;13.75;47.19
64158;BME280;50449;51.528;5.076;2023-04-03T13:37:29;102860.41;;;13.79;46.89
64158;BME280;50449;51.528;5.076;2023-04-03T13:40:25;102863.53;;;13.83;46.55
64158;BME280;50449;51.528;5.076;2023-04-03T13:43:17;102864.38;;;13.83;46.46
64158;BME280;50449;51.528;5.076;2023-04-03T13:46:01;102865.84;;;13.86;46.44
64158;BME280;50449;51.528;5.076;2023-04-03T13:48:51;102858.09;;;13.90;46.22
64158;BME280;50449;51.528;5.076;2023-04-03T13:51:26;102856.81;;;13.99;46.42
64158;BME280;50449;51.528;5.076;2023-04-03T13:53:59;102866.00;;;14.04;46.53
64158;BME280;50449;51.528;5.076;2023-04-03T13:56:33;102858.84;;;14.10;46.29
64158;BME280;50449;51.528;5.076;2023-04-03T14:01:46;102859.66;;;14.17;46.34
64158;BME280;50449;51.528;5.076;2023-04-03T14:04:25;102854.88;;;14.19;46.30
64158;BME280;50449;51.528;5.076;2023-04-03T14:06:53;102857.78;;;14.24;46.56
64158;BME280;50449;51.528;5.076;2023-04-03T14:09:20;102852.50;;;14.29;46.52
64158;BME280;50449;51.528;5.076;2023-04-03T14:11:49;102843.91;;;14.33;46.29
64158;BME280;50449;51.528;5.076;2023-04-03T14:14:19;102845.75;;;14.39;46.32
64158;BME280;50449;51.528;5.076;2023-04-03T14:16:50;102831.75;;;14.42;46.33
64158;BME280;50449;51.528;5.076;2023-04-03T14:19:27;102842.19;;;14.45;46.15
64158;BME280;50449;51.528;5.076;2023-04-03T14:21:54;102839.84;;;14.48;46.12
64158;BME280;50449;51.528;5.076;2023-04-03T14:24:20;102842.56;;;14.48;45.97
64158;BME280;50449;51.528;5.076;2023-04-03T14:26:48;102840.69;;;14.56;46.05
64158;BME280;50449;51.528;5.076;2023-04-03T14:29:14;102842.97;;;14.59;45.97
64158;BME280;50449;51.528;5.076;2023-04-03T14:31:41;102835.44;;;14.61;45.96
64158;BME280;50449;51.528;5.076;2023-04-03T14:34:12;102829.34;;;14.65;45.81